sensor_id;sensor_type;location;lat;lon;timestamp;temperature;humidity
23560;DHT22;11958;50.836;4.438;2023-05-16T00:00:57;9.90;77.20
23560;DHT22;11958;50.836;4.438;2023-05-16T00:03:23;9.80;77.70
23560;DHT22;11958;50.836;4.438;2023-05-16T00:06:00;9.80;77.80
23560;DHT22;11958;50.836;4.438;2023-05-16T00:08:30;9.80;77.90
23560;DHT22;11958;50.836;4.438;2023-05-16T00:10:55;9.70;78.30
23560;DHT22;11958;50.836;4.438;2023-05-16T00:13:21;9.80;77.90
23560;DHT22;11958;50.836;4.438;2023-05-16T00:15:53;9.70;78.10
23560;DHT22;11958;50.836;4.438;2023-05-16T00:18:19;9.80;78.30
23560;DHT22;11958;50.836;4.438;2023-05-16T00:20:47;9.70;78.10
23560;DHT22;11958;50.836;4.438;2023-05-16T00:23:13;9.70;78.50
23560;DHT22;11958;50.836;4.438;2023-05-16T00:25:39;9.60;78.50
23560;DHT22;11958;50.836;4.438;2023-05-16T00:28:06;9.60;78.70
23560;DHT22;11958;50.836;4.438;2023-05-16T00:30:33;9.60;78.80
23560;DHT22;11958;50.836;4.438;2023-05-16T00:32:59;9.50;78.90
23560;DHT22;11958;50.836;4.438;2023-05-16T00:35:25;9.50;79.00
23560;DHT22;11958;50.836;4.438;2023-05-16T00:37:51;9.50;79.10
23560;DHT22;11958;50.836;4.438;2023-05-16T00:40:16;9.50;79.20
23560;DHT22;11958;50.836;4.438;2023-05-16T00:42:42;9.50;79.50
23560;DHT22;11958;50.836;4.438;2023-05-16T00:45:09;9.50;79.20
23560;DHT22;11958;50.836;4.438;2023-05-16T00:47:35;9.40;79.50
23560;DHT22;11958;50.836;4.438;2023-05-16T00:50:01;9.30;79.80
23560;DHT22;11958;50.836;4.438;2023-05-16T00:52:28;9.30;79.90
23560;DHT22;11958;50.836;4.438;2023-05-16T00:54:55;9.40;79.80
23560;DHT22;11958;50.836;4.438;2023-05-16T00:57:27;9.30;79.70
23560;DHT22;11958;50.836;4.438;2023-05-16T00:59:53;9.20;80.10
23560;DHT22;11958;50.836;4.438;2023-05-16T01:02:19;9.30;80.20
23560;DHT22;11958;50.836;4.438;2023-05-16T01:04:46;9.20;80.30
23560;DHT22;11958;50.836;4.438;2023-05-16T01:07:13;9.30;80.20
23560;DHT22;11958;50.836;4.438;2023-05-16T01:09:39;9.20;80.50
23560;DHT22;11958;50.836;4.438;2023-05-16T01:15:07;9.30;79.90
23560;DHT22;11958;50.836;4.438;2023-05-16T01:18:14;9.20;80.30
23560;DHT22;11958;50.836;4.438;2023-05-16T01:20:58;9.10;80.70
23560;DHT22;11958;50.836;4.438;2023-05-16T01:26:28;9.10;80.60
23560;DHT22;11958;50.836;4.438;2023-05-16T01:28:55;9.10;80.40
23560;DHT22;11958;50.836;4.438;2023-05-16T01:31:22;9.00;80.30
23560;DHT22;11958;50.836;4.438;2023-05-16T01:34:20;9.00;80.60
23560;DHT22;11958;50.836;4.438;2023-05-16T01:39:40;9.00;80.90
23560;DHT22;11958;50.836;4.438;2023-05-16T01:42:13;9.00;80.60
23560;DHT22;11958;50.836;4.438;2023-05-16T01:47:30;8.90;81.10
23560;DHT22;11958;50.836;4.438;2023-05-16T01:52:33;8.90;81.20
23560;DHT22;11958;50.836;4.438;2023-05-16T01:57:42;8.90;80.80
23560;DHT22;11958;50.836;4.438;2023-05-16T02:00:21;8.80;81.20
23560;DHT22;11958;50.836;4.438;2023-05-16T02:02:50;8.80;81.60
23560;DHT22;11958;50.836;4.438;2023-05-16T02:05:16;9.00;80.90
23560;DHT22;11958;50.836;4.438;2023-05-16T02:07:42;8.80;80.80
23560;DHT22;11958;50.836;4.438;2023-05-16T02:10:20;8.90;80.90
23560;DHT22;11958;50.836;4.438;2023-05-16T02:12:46;8.90;80.80
23560;DHT22;11958;50.836;4.438;2023-05-16T02:15:14;9.10;80.20
23560;DHT22;11958;50.836;4.438;2023-05-16T02:17:40;9.00;80.70
23560;DHT22;11958;50.836;4.438;2023-05-16T02:20:06;8.60;81.20
23560;DHT22;11958;50.836;4.438;2023-05-16T02:22:34;8.60;81.70
23560;DHT22;11958;50.836;4.438;2023-05-16T02:28:45;8.70;81.80
23560;DHT22;11958;50.836;4.438;2023-05-16T02:31:11;8.60;81.50
23560;DHT22;11958;50.836;4.438;2023-05-16T02:33:40;8.60;81.80
23560;DHT22;11958;50.836;4.438;2023-05-16T02:36:06;8.70;81.60
23560;DHT22;11958;50.836;4.438;2023-05-16T02:41:50;8.50;81.60
23560;DHT22;11958;50.836;4.438;2023-05-16T02:44:16;8.40;81.80
23560;DHT22;11958;50.836;4.438;2023-05-16T02:50:01;8.50;81.90
23560;DHT22;11958;50.836;4.438;2023-05-16T02:52:30;8.60;82.00
23560;DHT22;11958;50.836;4.438;2023-05-16T02:58:28;8.50;82.10
23560;DHT22;11958;50.836;4.438;2023-05-16T03:00:56;8.40;82.50
23560;DHT22;11958;50.836;4.438;2023-05-16T03:03:27;8.50;82.40
23560;DHT22;11958;50.836;4.438;2023-05-16T03:06:03;8.40;82.60
23560;DHT22;11958;50.836;4.438;2023-05-16T03:08:28;8.40;83.10
23560;DHT22;11958;50.836;4.438;2023-05-16T03:10:54;8.60;82.70
23560;DHT22;11958;50.836;4.438;2023-05-16T03:13:20;8.50;82.40
23560;DHT22;11958;50.836;4.438;2023-05-16T03:15:46;8.60;82.50
23560;DHT22;11958;50.836;4.438;2023-05-16T03:18:11;8.40;82.80
23560;DHT22;11958;50.836;4.438;2023-05-16T03:20:37;8.40;82.90
23560;DHT22;11958;50.836;4.438;2023-05-16T03:23:03;8.30;82.70
23560;DHT22;11958;50.836;4.438;2023-05-16T03:25:32;8.30;83.20
23560;DHT22;11958;50.836;4.438;2023-05-16T03:27:58;8.30;83.60
23560;DHT22;11958;50.836;4.438;2023-05-16T03:30:24;8.40;83.60
23560;DHT22;11958;50.836;4.438;2023-05-16T03:32:51;8.40;83.70
23560;DHT22;11958;50.836;4.438;2023-05-16T03:37:52;8.40;83.40
23560;DHT22;11958;50.836;4.438;2023-05-16T03:40:18;8.30;83.60
23560;DHT22;11958;50.836;4.438;2023-05-16T03:42:43;8.30;83.90
23560;DHT22;11958;50.836;4.438;2023-05-16T03:45:10;8.50;83.40
23560;DHT22;11958;50.836;4.438;2023-05-16T03:47:36;8.50;83.40
23560;DHT22;11958;50.836;4.438;2023-05-16T03:50:02;8.40;83.30
23560;DHT22;11958;50.836;4.438;2023-05-16T03:52:28;8.40;84.00
23560;DHT22;11958;50.836;4.438;2023-05-16T03:54:53;8.40;84.30
23560;DHT22;11958;50.836;4.438;2023-05-16T03:57:19;8.10;84.50
23560;DHT22;11958;50.836;4.438;2023-05-16T03:59:45;8.20;84.80
23560;DHT22;11958;50.836;4.438;2023-05-16T04:02:11;8.10;84.90
23560;DHT22;11958;50.836;4.438;2023-05-16T04:04:36;8.20;85.20
23560;DHT22;11958;50.836;4.438;2023-05-16T04:07:02;8.20;84.20
23560;DHT22;11958;50.836;4.438;2023-05-16T04:09:28;8.20;84.50
23560;DHT22;11958;50.836;4.438;2023-05-16T04:11:54;8.10;85.00
23560;DHT22;11958;50.836;4.438;2023-05-16T04:14:23;7.90;85.00
23560;DHT22;11958;50.836;4.438;2023-05-16T04:16:49;8.00;85.60
23560;DHT22;11958;50.836;4.438;2023-05-16T04:19:14;8.00;85.40
23560;DHT22;11958;50.836;4.438;2023-05-16T04:21:40;8.10;85.50
23560;DHT22;11958;50.836;4.438;2023-05-16T04:24:07;8.20;84.70
23560;DHT22;11958;50.836;4.438;2023-05-16T04:26:32;8.20;84.40
23560;DHT22;11958;50.836;4.438;2023-05-16T04:28:58;8.30;84.60
23560;DHT22;11958;50.836;4.438;2023-05-16T04:31:24;8.30;84.50
23560;DHT22;11958;50.836;4.438;2023-05-16T04:33:50;8.30;84.30
23560;DHT22;11958;50.836;4.438;2023-05-16T04:36:17;8.40;84.40
23560;DHT22;11958;50.836;4.438;2023-05-16T04:38:42;8.60;83.90
23560;DHT22;11958;50.836;4.438;2023-05-16T04:41:11;8.40;83.50
23560;DHT22;11958;50.836;4.438;2023-05-16T04:43:36;8.60;83.20
23560;DHT22;11958;50.836;4.438;2023-05-16T04:46:02;8.70;83.20
23560;DHT22;11958;50.836;4.438;2023-05-16T04:48:28;8.60;83.20
23560;DHT22;11958;50.836;4.438;2023-05-16T04:50:54;8.50;83.10
23560;DHT22;11958;50.836;4.438;2023-05-16T04:53:20;8.50;83.80
23560;DHT22;11958;50.836;4.438;2023-05-16T04:55:45;8.60;83.20
23560;DHT22;11958;50.836;4.438;2023-05-16T04:58:11;8.60;83.20
23560;DHT22;11958;50.836;4.438;2023-05-16T05:00:38;8.90;82.40
23560;DHT22;11958;50.836;4.438;2023-05-16T05:03:03;8.70;82.40
23560;DHT22;11958;50.836;4.438;2023-05-16T05:05:29;8.60;82.30
23560;DHT22;11958;50.836;4.438;2023-05-16T05:07:57;8.70;82.60
23560;DHT22;11958;50.836;4.438;2023-05-16T05:10:23;8.80;82.50
23560;DHT22;11958;50.836;4.438;2023-05-16T05:19:56;9.00;81.60
23560;DHT22;11958;50.836;4.438;2023-05-16T05:23:05;9.10;80.90
23560;DHT22;11958;50.836;4.438;2023-05-16T05:25:46;9.20;81.20
23560;DHT22;11958;50.836;4.438;2023-05-16T05:28:19;9.20;81.10
23560;DHT22;11958;50.836;4.438;2023-05-16T05:47:17;9.50;80.70
23560;DHT22;11958;50.836;4.438;2023-05-16T05:50:08;9.70;79.70
23560;DHT22;11958;50.836;4.438;2023-05-16T05:52:36;9.70;79.50
23560;DHT22;11958;50.836;4.438;2023-05-16T05:55:08;9.80;79.30
23560;DHT22;11958;50.836;4.438;2023-05-16T05:57:43;9.90;79.30
23560;DHT22;11958;50.836;4.438;2023-05-16T06:00:09;9.80;78.00
23560;DHT22;11958;50.836;4.438;2023-05-16T06:02:36;9.90;78.60
23560;DHT22;11958;50.836;4.438;2023-05-16T06:05:01;10.10;76.50
23560;DHT22;11958;50.836;4.438;2023-05-16T06:07:45;9.90;77.20
23560;DHT22;11958;50.836;4.438;2023-05-16T06:20:37;10.10;75.50
23560;DHT22;11958;50.836;4.438;2023-05-16T06:23:03;10.30;75.10
23560;DHT22;11958;50.836;4.438;2023-05-16T06:28:18;10.50;74.80
23560;DHT22;11958;50.836;4.438;2023-05-16T06:30:44;10.60;73.30
23560;DHT22;11958;50.836;4.438;2023-05-16T06:33:20;10.60;73.80
23560;DHT22;11958;50.836;4.438;2023-05-16T06:35:48;10.80;73.00
23560;DHT22;11958;50.836;4.438;2023-05-16T06:38:14;10.80;72.50
23560;DHT22;11958;50.836;4.438;2023-05-16T06:40:40;10.80;72.50
23560;DHT22;11958;50.836;4.438;2023-05-16T06:43:06;10.80;73.50
23560;DHT22;11958;50.836;4.438;2023-05-16T06:45:44;11.00;72.50
23560;DHT22;11958;50.836;4.438;2023-05-16T06:51:38;10.90;71.30
23560;DHT22;11958;50.836;4.438;2023-05-16T06:54:05;10.70;69.90
23560;DHT22;11958;50.836;4.438;2023-05-16T06:56:31;10.90;70.90
23560;DHT22;11958;50.836;4.438;2023-05-16T06:59:12;10.90;70.30
23560;DHT22;11958;50.836;4.438;2023-05-16T07:02:02;10.90;69.10
23560;DHT22;11958;50.836;4.438;2023-05-16T07:04:39;10.80;72.80
23560;DHT22;11958;50.836;4.438;2023-05-16T07:07:13;11.00;69.10
23560;DHT22;11958;50.836;4.438;2023-05-16T07:23:38;11.30;70.20
23560;DHT22;11958;50.836;4.438;2023-05-16T07:26:03;11.80;69.60
23560;DHT22;11958;50.836;4.438;2023-05-16T07:28:48;12.00;67.10
23560;DHT22;11958;50.836;4.438;2023-05-16T07:31:13;11.90;68.40
23560;DHT22;11958;50.836;4.438;2023-05-16T07:33:39;12.30;67.70
23560;DHT22;11958;50.836;4.438;2023-05-16T07:36:05;12.30;66.50
23560;DHT22;11958;50.836;4.438;2023-05-16T07:38:31;12.20;65.70
23560;DHT22;11958;50.836;4.438;2023-05-16T07:40:56;12.30;66.90
23560;DHT22;11958;50.836;4.438;2023-05-16T07:43:22;12.30;67.00
23560;DHT22;11958;50.836;4.438;2023-05-16T07:45:48;12.40;67.60
23560;DHT22;11958;50.836;4.438;2023-05-16T07:48:13;12.20;67.10
23560;DHT22;11958;50.836;4.438;2023-05-16T07:50:39;12.40;66.50
23560;DHT22;11958;50.836;4.438;2023-05-16T07:53:05;12.30;66.30
23560;DHT22;11958;50.836;4.438;2023-05-16T07:55:30;12.50;65.90
23560;DHT22;11958;50.836;4.438;2023-05-16T07:57:56;12.40;65.70
23560;DHT22;11958;50.836;4.438;2023-05-16T08:00:22;12.40;65.60
23560;DHT22;11958;50.836;4.438;2023-05-16T08:02:48;12.50;66.30
23560;DHT22;11958;50.836;4.438;2023-05-16T08:05:13;12.40;65.10
23560;DHT22;11958;50.836;4.438;2023-05-16T08:07:39;12.40;65.00
23560;DHT22;11958;50.836;4.438;2023-05-16T08:10:14;12.20;64.70
23560;DHT22;11958;50.836;4.438;2023-05-16T08:12:43;12.10;64.90
23560;DHT22;11958;50.836;4.438;2023-05-16T08:15:12;12.10;65.50
23560;DHT22;11958;50.836;4.438;2023-05-16T08:18:16;12.20;64.90
23560;DHT22;11958;50.836;4.438;2023-05-16T08:20:41;12.60;64.80
23560;DHT22;11958;50.836;4.438;2023-05-16T08:23:08;12.70;62.30
23560;DHT22;11958;50.836;4.438;2023-05-16T08:25:34;12.80;61.60
23560;DHT22;11958;50.836;4.438;2023-05-16T08:28:00;12.90;60.60
23560;DHT22;11958;50.836;4.438;2023-05-16T08:30:26;13.00;59.10
23560;DHT22;11958;50.836;4.438;2023-05-16T08:32:52;13.00;58.50
23560;DHT22;11958;50.836;4.438;2023-05-16T08:35:18;12.80;56.90
23560;DHT22;11958;50.836;4.438;2023-05-16T08:37:44;12.70;58.40
23560;DHT22;11958;50.836;4.438;2023-05-16T08:40:10;12.80;59.60
23560;DHT22;11958;50.836;4.438;2023-05-16T08:42:36;12.80;59.70
23560;DHT22;11958;50.836;4.438;2023-05-16T08:45:02;12.70;57.80
23560;DHT22;11958;50.836;4.438;2023-05-16T08:47:33;12.70;59.20
23560;DHT22;11958;50.836;4.438;2023-05-16T08:50:02;12.70;57.80
23560;DHT22;11958;50.836;4.438;2023-05-16T08:52:30;12.90;57.20
23560;DHT22;11958;50.836;4.438;2023-05-16T08:55:05;13.00;57.20
23560;DHT22;11958;50.836;4.438;2023-05-16T08:57:52;13.40;54.60
23560;DHT22;11958;50.836;4.438;2023-05-16T09:00:19;13.80;55.10
23560;DHT22;11958;50.836;4.438;2023-05-16T09:02:45;13.90;53.60
23560;DHT22;11958;50.836;4.438;2023-05-16T09:05:13;14.00;53.90
23560;DHT22;11958;50.836;4.438;2023-05-16T09:07:40;14.10;52.70
23560;DHT22;11958;50.836;4.438;2023-05-16T09:10:06;14.20;53.20
23560;DHT22;11958;50.836;4.438;2023-05-16T09:12:33;14.20;53.60
23560;DHT22;11958;50.836;4.438;2023-05-16T09:15:03;14.00;54.10
23560;DHT22;11958;50.836;4.438;2023-05-16T09:20:51;14.40;54.20
23560;DHT22;11958;50.836;4.438;2023-05-16T09:23:23;14.60;56.20
23560;DHT22;11958;50.836;4.438;2023-05-16T09:26:04;14.30;54.40
23560;DHT22;11958;50.836;4.438;2023-05-16T09:28:42;14.20;53.10
23560;DHT22;11958;50.836;4.438;2023-05-16T09:31:30;14.20;53.60
23560;DHT22;11958;50.836;4.438;2023-05-16T09:34:02;14.10;52.70
23560;DHT22;11958;50.836;4.438;2023-05-16T09:36:30;13.80;53.00
23560;DHT22;11958;50.836;4.438;2023-05-16T09:38:56;13.80;54.70
23560;DHT22;11958;50.836;4.438;2023-05-16T09:41:22;13.90;52.50
23560;DHT22;11958;50.836;4.438;2023-05-16T09:43:48;13.90;54.60
23560;DHT22;11958;50.836;4.438;2023-05-16T09:46:14;14.10;52.90
23560;DHT22;11958;50.836;4.438;2023-05-16T09:48:44;14.20;52.90
23560;DHT22;11958;50.836;4.438;2023-05-16T09:51:11;14.50;53.30
23560;DHT22;11958;50.836;4.438;2023-05-16T09:53:38;14.90;52.70
23560;DHT22;11958;50.836;4.438;2023-05-16T09:56:11;14.60;52.40
23560;DHT22;11958;50.836;4.438;2023-05-16T09:58:38;14.70;51.80
23560;DHT22;11958;50.836;4.438;2023-05-16T10:01:05;14.80;51.90
23560;DHT22;11958;50.836;4.438;2023-05-16T10:03:35;14.40;51.80
23560;DHT22;11958;50.836;4.438;2023-05-16T10:06:02;14.40;53.60
23560;DHT22;11958;50.836;4.438;2023-05-16T10:08:30;14.70;52.50
23560;DHT22;11958;50.836;4.438;2023-05-16T10:10:56;14.60;51.50
23560;DHT22;11958;50.836;4.438;2023-05-16T10:13:29;14.50;51.90
23560;DHT22;11958;50.836;4.438;2023-05-16T10:15:57;14.90;51.50
23560;DHT22;11958;50.836;4.438;2023-05-16T10:18:30;15.10;48.90
23560;DHT22;11958;50.836;4.438;2023-05-16T10:21:07;15.20;48.30
23560;DHT22;11958;50.836;4.438;2023-05-16T10:23:35;15.00;47.60
23560;DHT22;11958;50.836;4.438;2023-05-16T10:26:03;15.10;49.50
23560;DHT22;11958;50.836;4.438;2023-05-16T10:28:30;15.70;45.80
23560;DHT22;11958;50.836;4.438;2023-05-16T10:30:57;15.60;44.70
23560;DHT22;11958;50.836;4.438;2023-05-16T10:33:23;15.70;42.90
23560;DHT22;11958;50.836;4.438;2023-05-16T10:35:49;15.70;41.50
23560;DHT22;11958;50.836;4.438;2023-05-16T10:38:17;15.50;44.60
23560;DHT22;11958;50.836;4.438;2023-05-16T10:40:44;15.10;47.00
23560;DHT22;11958;50.836;4.438;2023-05-16T10:43:22;14.90;47.60
23560;DHT22;11958;50.836;4.438;2023-05-16T10:45:54;14.90;46.60
23560;DHT22;11958;50.836;4.438;2023-05-16T10:48:28;15.00;47.00
23560;DHT22;11958;50.836;4.438;2023-05-16T10:50:57;15.30;46.40
23560;DHT22;11958;50.836;4.438;2023-05-16T10:53:36;15.70;43.10
23560;DHT22;11958;50.836;4.438;2023-05-16T11:00:00;15.90;42.30
23560;DHT22;11958;50.836;4.438;2023-05-16T11:02:31;15.60;42.90
23560;DHT22;11958;50.836;4.438;2023-05-16T11:05:00;15.40;45.80
23560;DHT22;11958;50.836;4.438;2023-05-16T11:08:12;15.50;45.10
23560;DHT22;11958;50.836;4.438;2023-05-16T11:22:40;16.00;43.50
23560;DHT22;11958;50.836;4.438;2023-05-16T11:25:07;16.50;44.20
23560;DHT22;11958;50.836;4.438;2023-05-16T11:27:48;16.10;44.30
23560;DHT22;11958;50.836;4.438;2023-05-16T11:30:15;16.10;43.60
23560;DHT22;11958;50.836;4.438;2023-05-16T11:32:44;16.00;44.30
23560;DHT22;11958;50.836;4.438;2023-05-16T11:35:12;16.00;43.70
23560;DHT22;11958;50.836;4.438;2023-05-16T11:37:39;16.10;42.50
23560;DHT22;11958;50.836;4.438;2023-05-16T11:40:06;15.60;43.10
23560;DHT22;11958;50.836;4.438;2023-05-16T11:42:43;15.60;43.20
23560;DHT22;11958;50.836;4.438;2023-05-16T11:45:11;15.50;43.90
23560;DHT22;11958;50.836;4.438;2023-05-16T11:47:38;15.60;43.20
23560;DHT22;11958;50.836;4.438;2023-05-16T11:50:25;15.60;43.80
23560;DHT22;11958;50.836;4.438;2023-05-16T11:52:53;15.40;42.70
23560;DHT22;11958;50.836;4.438;2023-05-16T11:55:23;15.70;42.30
23560;DHT22;11958;50.836;4.438;2023-05-16T11:57:50;15.90;43.30
23560;DHT22;11958;50.836;4.438;2023-05-16T12:00:18;15.90;43.10
23560;DHT22;11958;50.836;4.438;2023-05-16T12:02:45;15.80;43.90
23560;DHT22;11958;50.836;4.438;2023-05-16T12:05:13;15.70;43.10
23560;DHT22;11958;50.836;4.438;2023-05-16T12:07:39;15.60;43.40
23560;DHT22;11958;50.836;4.438;2023-05-16T12:10:27;15.70;44.40
23560;DHT22;11958;50.836;4.438;2023-05-16T12:13:01;15.90;43.10
23560;DHT22;11958;50.836;4.438;2023-05-16T12:15:30;16.60;41.80
23560;DHT22;11958;50.836;4.438;2023-05-16T12:17:56;17.00;40.10
23560;DHT22;11958;50.836;4.438;2023-05-16T12:20:22;16.80;41.30
23560;DHT22;11958;50.836;4.438;2023-05-16T12:22:51;16.80;41.20
23560;DHT22;11958;50.836;4.438;2023-05-16T12:27:56;17.80;39.40
23560;DHT22;11958;50.836;4.438;2023-05-16T12:30:22;16.80;40.80
23560;DHT22;11958;50.836;4.438;2023-05-16T12:33:00;16.40;40.40
23560;DHT22;11958;50.836;4.438;2023-05-16T12:35:31;16.40;40.20
23560;DHT22;11958;50.836;4.438;2023-05-16T12:37:58;16.60;41.20
23560;DHT22;11958;50.836;4.438;2023-05-16T12:40:28;16.80;40.60
23560;DHT22;11958;50.836;4.438;2023-05-16T12:42:54;16.90;40.20
23560;DHT22;11958;50.836;4.438;2023-05-16T12:45:21;16.90;39.80
23560;DHT22;11958;50.836;4.438;2023-05-16T12:47:48;16.50;38.50
23560;DHT22;11958;50.836;4.438;2023-05-16T12:50:15;16.30;40.00
23560;DHT22;11958;50.836;4.438;2023-05-16T12:52:48;16.30;39.30
23560;DHT22;11958;50.836;4.438;2023-05-16T12:55:16;16.40;39.50
23560;DHT22;11958;50.836;4.438;2023-05-16T12:57:43;16.20;39.60
23560;DHT22;11958;50.836;4.438;2023-05-16T13:00:11;16.10;40.70
23560;DHT22;11958;50.836;4.438;2023-05-16T13:02:37;16.20;38.70
23560;DHT22;11958;50.836;4.438;2023-05-16T13:07:41;16.40;40.00
23560;DHT22;11958;50.836;4.438;2023-05-16T13:13:57;18.40;33.80
23560;DHT22;11958;50.836;4.438;2023-05-16T13:16:46;18.20;34.00
23560;DHT22;11958;50.836;4.438;2023-05-16T13:19:27;18.10;36.20
23560;DHT22;11958;50.836;4.438;2023-05-16T13:22:08;17.60;36.80
23560;DHT22;11958;50.836;4.438;2023-05-16T13:25:05;17.10;38.10
23560;DHT22;11958;50.836;4.438;2023-05-16T13:27:48;17.50;36.10
23560;DHT22;11958;50.836;4.438;2023-05-16T13:30:14;17.70;35.70
23560;DHT22;11958;50.836;4.438;2023-05-16T13:32:43;18.00;36.40
23560;DHT22;11958;50.836;4.438;2023-05-16T13:35:09;18.60;33.40
23560;DHT22;11958;50.836;4.438;2023-05-16T13:37:35;19.80;31.60
23560;DHT22;11958;50.836;4.438;2023-05-16T13:40:02;19.70;30.90
23560;DHT22;11958;50.836;4.438;2023-05-16T13:42:29;18.70;32.90
23560;DHT22;11958;50.836;4.438;2023-05-16T13:44:55;18.30;33.40
23560;DHT22;11958;50.836;4.438;2023-05-16T13:47:21;17.90;35.60
23560;DHT22;11958;50.836;4.438;2023-05-16T13:49:46;17.20;36.00
23560;DHT22;11958;50.836;4.438;2023-05-16T13:52:12;17.80;35.60
23560;DHT22;11958;50.836;4.438;2023-05-16T13:54:39;19.10;32.70
23560;DHT22;11958;50.836;4.438;2023-05-16T13:57:06;20.80;30.10
23560;DHT22;11958;50.836;4.438;2023-05-16T13:59:40;21.70;26.30
23560;DHT22;11958;50.836;4.438;2023-05-16T14:02:06;21.00;27.90
23560;DHT22;11958;50.836;4.438;2023-05-16T14:04:31;20.90;27.80
23560;DHT22;11958;50.836;4.438;2023-05-16T14:06:57;20.60;28.80
23560;DHT22;11958;50.836;4.438;2023-05-16T14:09:23;19.90;29.80
23560;DHT22;11958;50.836;4.438;2023-05-16T14:11:49;19.70;32.20
23560;DHT22;11958;50.836;4.438;2023-05-16T14:14:14;20.60;29.10
23560;DHT22;11958;50.836;4.438;2023-05-16T14:16:40;20.50;29.10
23560;DHT22;11958;50.836;4.438;2023-05-16T14:19:11;19.90;31.00
23560;DHT22;11958;50.836;4.438;2023-05-16T14:21:40;19.90;29.50
23560;DHT22;11958;50.836;4.438;2023-05-16T14:24:06;20.20;29.40
23560;DHT22;11958;50.836;4.438;2023-05-16T14:26:32;21.20;28.20
23560;DHT22;11958;50.836;4.438;2023-05-16T14:28:58;22.20;26.30
23560;DHT22;11958;50.836;4.438;2023-05-16T14:31:23;23.10;26.00
23560;DHT22;11958;50.836;4.438;2023-05-16T14:33:49;23.30;25.80
23560;DHT22;11958;50.836;4.438;2023-05-16T14:36:15;24.00;24.70
23560;DHT22;11958;50.836;4.438;2023-05-16T14:38:41;22.80;25.50
23560;DHT22;11958;50.836;4.438;2023-05-16T14:41:07;21.10;26.30
23560;DHT22;11958;50.836;4.438;2023-05-16T14:43:32;21.00;26.90
23560;DHT22;11958;50.836;4.438;2023-05-16T14:46:01;20.90;26.20
23560;DHT22;11958;50.836;4.438;2023-05-16T14:48:27;20.60;28.00
23560;DHT22;11958;50.836;4.438;2023-05-16T14:50:53;20.50;28.50
23560;DHT22;11958;50.836;4.438;2023-05-16T14:53:19;20.30;29.60
23560;DHT22;11958;50.836;4.438;2023-05-16T14:55:48;21.50;26.80
23560;DHT22;11958;50.836;4.438;2023-05-16T14:58:14;22.40;25.40
23560;DHT22;11958;50.836;4.438;2023-05-16T15:00:40;22.50;24.30
23560;DHT22;11958;50.836;4.438;2023-05-16T15:03:06;21.90;24.70
23560;DHT22;11958;50.836;4.438;2023-05-16T15:05:32;21.80;25.90
23560;DHT22;11958;50.836;4.438;2023-05-16T15:07:58;21.40;25.70
23560;DHT22;11958;50.836;4.438;2023-05-16T15:10:24;20.00;29.20
23560;DHT22;11958;50.836;4.438;2023-05-16T15:12:52;18.80;31.40
23560;DHT22;11958;50.836;4.438;2023-05-16T15:15:18;18.50;32.60
23560;DHT22;11958;50.836;4.438;2023-05-16T15:17:43;18.00;33.50
23560;DHT22;11958;50.836;4.438;2023-05-16T15:20:18;17.30;34.60
23560;DHT22;11958;50.836;4.438;2023-05-16T15:22:44;16.80;35.90
23560;DHT22;11958;50.836;4.438;2023-05-16T15:25:10;16.80;35.50
23560;DHT22;11958;50.836;4.438;2023-05-16T15:27:36;16.70;35.90
23560;DHT22;11958;50.836;4.438;2023-05-16T15:30:02;16.90;34.40
23560;DHT22;11958;50.836;4.438;2023-05-16T15:32:28;16.50;35.40
23560;DHT22;11958;50.836;4.438;2023-05-16T15:34:54;16.50;35.70
23560;DHT22;11958;50.836;4.438;2023-05-16T15:37:20;16.80;36.00
23560;DHT22;11958;50.836;4.438;2023-05-16T15:39:46;16.90;35.60
23560;DHT22;11958;50.836;4.438;2023-05-16T15:42:15;17.00;35.20
23560;DHT22;11958;50.836;4.438;2023-05-16T15:44:40;16.90;34.40
23560;DHT22;11958;50.836;4.438;2023-05-16T15:47:06;16.70;35.70
23560;DHT22;11958;50.836;4.438;2023-05-16T15:49:32;16.50;36.10
23560;DHT22;11958;50.836;4.438;2023-05-16T15:51:58;16.70;36.20
23560;DHT22;11958;50.836;4.438;2023-05-16T15:54:23;16.80;36.10
23560;DHT22;11958;50.836;4.438;2023-05-16T15:56:49;17.00;35.50
23560;DHT22;11958;50.836;4.438;2023-05-16T15:59:15;17.20;34.90
23560;DHT22;11958;50.836;4.438;2023-05-16T16:01:41;17.00;35.60
23560;DHT22;11958;50.836;4.438;2023-05-16T16:04:07;16.90;35.50
23560;DHT22;11958;50.836;4.438;2023-05-16T16:06:47;16.70;36.10
23560;DHT22;11958;50.836;4.438;2023-05-16T16:09:16;16.70;36.70
23560;DHT22;11958;50.836;4.438;2023-05-16T16:11:54;16.20;37.00
23560;DHT22;11958;50.836;4.438;2023-05-16T16:14:23;16.00;37.70
23560;DHT22;11958;50.836;4.438;2023-05-16T16:17:00;16.10;38.10
23560;DHT22;11958;50.836;4.438;2023-05-16T16:19:29;15.90;38.50
23560;DHT22;11958;50.836;4.438;2023-05-16T16:22:20;15.80;39.70
23560;DHT22;11958;50.836;4.438;2023-05-16T16:24:49;15.80;39.70
23560;DHT22;11958;50.836;4.438;2023-05-16T16:27:20;15.70;40.00
23560;DHT22;11958;50.836;4.438;2023-05-16T16:29:46;15.70;40.00
23560;DHT22;11958;50.836;4.438;2023-05-16T16:32:20;15.90;40.60
23560;DHT22;11958;50.836;4.438;2023-05-16T16:34:45;15.90;39.10
23560;DHT22;11958;50.836;4.438;2023-05-16T16:50:48;15.70;38.70
23560;DHT22;11958;50.836;4.438;2023-05-16T16:53:14;15.60;40.10
23560;DHT22;11958;50.836;4.438;2023-05-16T16:58:15;15.30;42.10
23560;DHT22;11958;50.836;4.438;2023-05-16T17:08:27;15.10;41.90
23560;DHT22;11958;50.836;4.438;2023-05-16T17:10:52;15.20;41.50
23560;DHT22;11958;50.836;4.438;2023-05-16T17:13:18;15.20;40.90
23560;DHT22;11958;50.836;4.438;2023-05-16T17:15:44;15.10;41.30
23560;DHT22;11958;50.836;4.438;2023-05-16T17:18:10;15.30;41.30
23560;DHT22;11958;50.836;4.438;2023-05-16T17:20:36;15.30;42.70
23560;DHT22;11958;50.836;4.438;2023-05-16T17:23:02;15.20;42.20
23560;DHT22;11958;50.836;4.438;2023-05-16T17:25:28;15.20;42.10
23560;DHT22;11958;50.836;4.438;2023-05-16T17:30:29;15.20;42.40
23560;DHT22;11958;50.836;4.438;2023-05-16T17:32:55;15.20;42.90
23560;DHT22;11958;50.836;4.438;2023-05-16T17:37:56;15.30;41.90
23560;DHT22;11958;50.836;4.438;2023-05-16T17:40:21;15.10;42.30
23560;DHT22;11958;50.836;4.438;2023-05-16T17:42:52;15.00;43.80
23560;DHT22;11958;50.836;4.438;2023-05-16T17:45:18;15.00;43.10
23560;DHT22;11958;50.836;4.438;2023-05-16T17:47:44;15.00;42.80
23560;DHT22;11958;50.836;4.438;2023-05-16T17:50:10;14.80;43.30
23560;DHT22;11958;50.836;4.438;2023-05-16T17:52:37;14.70;43.60
23560;DHT22;11958;50.836;4.438;2023-05-16T17:55:05;14.70;43.90
23560;DHT22;11958;50.836;4.438;2023-05-16T17:57:31;14.80;44.60
23560;DHT22;11958;50.836;4.438;2023-05-16T17:59:58;14.80;44.20
23560;DHT22;11958;50.836;4.438;2023-05-16T18:02:28;14.70;45.30
23560;DHT22;11958;50.836;4.438;2023-05-16T18:04:54;14.60;45.90
23560;DHT22;11958;50.836;4.438;2023-05-16T18:07:20;14.60;45.40
23560;DHT22;11958;50.836;4.438;2023-05-16T18:09:48;14.70;45.90